Time;durP1;ratioP1;P1;durP2;ratioP2;P2;SDS_P1;SDS_P2;PMS_P1;PMS_P2;Temp;Humidity;BMP_temperature;BMP_pressure;BME280_temperature;BME280_humidity;BME280_pressure;Samples;Min_cycle;Max_cycle;Signal;HPM_P1;HPM_P2
2022/05/22 00:00:42;;;;;;;3.63;1.92;;;14.00;99.90;;;;;;4973790;28;20023;-71
2022/05/22 00:03:10;;;;;;;3.67;1.50;;;14.10;99.90;;;;;;4972778;28;20558;-70
2022/05/22 00:05:38;;;;;;;5.18;2.35;;;14.10;99.90;;;;;;4972867;28;20360;-71
2022/05/22 00:08:06;;;;;;;2.63;1.58;;;14.10;99.90;;;;;;4972973;28;20383;-70
2022/05/22 00:10:34;;;;;;;2.63;2.15;;;14.10;99.90;;;;;;4973198;28;20019;-70
2022/05/22 00:13:02;;;;;;;9.40;2.17;;;14.10;99.90;;;;;;4971733;28;20380;-71
2022/05/22 00:15:33;;;;;;;6.93;1.70;;;14.10;99.90;;;;;;4973187;28;20110;-72
2022/05/22 00:18:01;;;;;;;5.55;1.80;;;14.10;99.90;;;;;;4973684;28;20030;-71
2022/05/22 00:20:28;;;;;;;2.95;1.50;;;14.10;99.90;;;;;;4973187;28;20026;-71
2022/05/22 00:22:56;;;;;;;7.32;1.73;;;14.20;99.90;;;;;;4973956;28;20444;-71
2022/05/22 00:25:24;;;;;;;5.97;1.60;;;14.20;99.90;;;;;;4974394;28;20027;-76
2022/05/22 00:27:52;;;;;;;2.20;1.13;;;14.20;99.90;;;;;;4972433;28;20046;-71
2022/05/22 00:30:20;;;;;;;4.47;1.73;;;14.30;99.90;;;;;;4973251;28;20089;-76
2022/05/22 00:32:48;;;;;;;2.95;1.33;;;14.20;99.90;;;;;;4973816;28;20379;-70
2022/05/22 00:35:15;;;;;;;10.82;1.55;;;14.20;99.90;;;;;;4973695;28;20042;-75
2022/05/22 00:37:43;;;;;;;2.55;1.55;;;14.20;99.90;;;;;;4973038;28;20015;-76
2022/05/22 00:40:11;;;;;;;8.45;1.25;;;14.20;99.90;;;;;;4973019;28;20026;-75
2022/05/22 00:42:42;;;;;;;4.93;1.50;;;14.20;99.90;;;;;;4972978;28;20027;-77
2022/05/22 00:45:10;;;;;;;2.88;1.40;;;14.20;99.90;;;;;;4972957;28;20062;-71
2022/05/22 00:47:38;;;;;;;5.15;1.55;;;14.20;99.90;;;;;;4972459;28;20030;-71
2022/05/22 00:50:06;;;;;;;6.78;1.83;;;14.20;99.90;;;;;;4971236;28;20046;-71
2022/05/22 00:52:45;;;;;;;3.72;1.65;;;14.20;99.90;;;;;;4973325;28;20050;-71
2022/05/22 00:55:19;;;;;;;4.68;1.40;;;14.20;99.90;;;;;;4975394;28;20037;-76
2022/05/22 00:57:59;;;;;;;4.53;1.73;;;14.20;99.90;;;;;;4976429;28;20386;-71
2022/05/22 01:00:32;;;;;;;3.38;1.67;;;14.20;99.90;;;;;;4976857;28;20446;-77
2022/05/22 01:05:50;;;;;;;6.68;1.60;;;14.30;99.90;;;;;;4976239;28;20094;-74
2022/05/22 01:08:18;;;;;;;10.98;2.38;;;14.30;99.90;;;;;;4978706;28;20031;-71
2022/05/22 01:10:52;;;;;;;3.78;2.05;;;14.30;99.90;;;;;;4987216;28;20031;-70
2022/05/22 01:13:31;;;;;;;2.97;1.60;;;14.30;99.90;;;;;;4988924;28;20035;-72
2022/05/22 01:15:59;;;;;;;3.60;1.30;;;14.30;99.90;;;;;;4991348;28;20038;-73
2022/05/22 01:18:28;;;;;;;3.55;1.55;;;14.30;99.90;;;;;;4987849;28;20612;-76
2022/05/22 01:20:57;;;;;;;4.85;1.50;;;14.30;99.90;;;;;;4979686;28;20034;-73
2022/05/22 01:23:25;;;;;;;3.22;1.38;;;14.30;99.90;;;;;;4975455;28;20027;-71
2022/05/22 01:25:53;;;;;;;4.32;1.35;;;14.30;99.90;;;;;;4975648;28;20026;-72
2022/05/22 01:28:21;;;;;;;1.88;0.95;;;14.30;99.90;;;;;;4975308;28;20051;-76
2022/05/22 01:30:49;;;;;;;3.83;1.52;;;14.20;99.90;;;;;;4976012;28;20023;-76
2022/05/22 01:33:16;;;;;;;4.47;1.10;;;14.20;99.90;;;;;;4975788;28;20015;-76
2022/05/22 01:35:44;;;;;;;5.78;1.15;;;14.30;99.90;;;;;;4976129;28;20045;-72
2022/05/22 01:38:12;;;;;;;4.88;1.67;;;14.30;99.90;;;;;;4976118;28;20425;-76
2022/05/22 01:40:40;;;;;;;3.38;1.23;;;14.30;99.90;;;;;;4975929;28;20023;-74
2022/05/22 01:43:07;;;;;;;3.45;1.00;;;14.30;99.90;;;;;;4975659;28;20019;-76
2022/05/22 01:45:36;;;;;;;5.28;1.58;;;14.30;99.90;;;;;;4976370;28;20026;-76
2022/05/22 01:48:04;;;;;;;5.97;1.38;;;14.30;99.90;;;;;;4975860;28;21537;-71
2022/05/22 01:50:32;;;;;;;2.78;1.52;;;14.40;99.90;;;;;;4975273;28;20086;-73
2022/05/22 01:52:59;;;;;;;2.47;1.30;;;14.40;99.90;;;;;;4975386;28;20046;-72
2022/05/22 01:55:27;;;;;;;3.30;1.10;;;14.30;99.90;;;;;;4974409;28;20050;-76
2022/05/22 01:57:55;;;;;;;3.25;1.33;;;14.30;99.90;;;;;;4975614;28;20023;-74
2022/05/22 02:00:24;;;;;;;4.32;1.10;;;14.30;99.90;;;;;;4975360;28;20467;-74
2022/05/22 02:02:55;;;;;;;4.70;1.25;;;14.30;99.90;;;;;;4975462;28;20027;-76
2022/05/22 02:05:24;;;;;;;7.15;1.10;;;14.30;99.90;;;;;;4975804;28;20021;-73
2022/05/22 02:10:38;;;;;;;4.82;1.20;;;14.30;99.90;;;;;;4981811;28;20033;-71
2022/05/22 02:13:07;;;;;;;4.07;1.10;;;14.30;99.90;;;;;;4975012;28;20512;-76
2022/05/22 02:15:35;;;;;;;3.45;1.52;;;14.30;99.90;;;;;;4975359;28;20464;-76
2022/05/22 02:18:03;;;;;;;3.72;1.38;;;14.40;99.90;;;;;;4981700;28;20030;-76
2022/05/22 02:20:30;;;;;;;4.15;1.80;;;14.40;99.90;;;;;;4986215;28;20522;-76
2022/05/22 02:22:59;;;;;;;3.28;0.90;;;14.40;99.90;;;;;;4980222;28;20460;-71
2022/05/22 02:25:36;;;;;;;6.72;1.33;;;14.40;99.90;;;;;;4975157;28;20380;-76
2022/05/22 02:28:07;;;;;;;1.85;0.57;;;14.30;99.90;;;;;;4975606;28;20026;-71
2022/05/22 02:30:38;;;;;;;4.57;1.00;;;14.20;99.90;;;;;;4975547;28;20099;-76
2022/05/22 02:33:07;;;;;;;2.63;0.80;;;14.10;99.90;;;;;;4982928;28;20034;-70
2022/05/22 02:35:34;;;;;;;2.17;0.65;;;14.10;99.90;;;;;;4974522;28;20062;-72
2022/05/22 02:38:02;;;;;;;1.02;0.43;;;14.10;99.90;;;;;;4976675;28;20905;-76
2022/05/22 02:40:33;;;;;;;0.88;0.45;;;14.10;99.90;;;;;;4974692;28;20038;-72
2022/05/22 02:43:02;;;;;;;1.70;0.50;;;14.10;99.90;;;;;;4974836;28;20026;-71
2022/05/22 02:45:32;;;;;;;2.90;0.88;;;14.20;99.90;;;;;;4977493;28;20015;-75
2022/05/22 02:47:59;;;;;;;2.60;1.13;;;14.20;99.90;;;;;;4974593;28;20154;-70
2022/05/22 02:50:30;;;;;;;2.38;0.70;;;14.20;99.90;;;;;;4974160;28;20049;-70
2022/05/22 02:52:58;;;;;;;4.20;0.68;;;14.20;99.90;;;;;;4974712;28;20027;-70
2022/05/22 02:55:26;;;;;;;3.90;0.70;;;14.20;99.90;;;;;;4974389;28;20146;-69
2022/05/22 02:57:54;;;;;;;1.13;0.60;;;14.30;99.90;;;;;;4974346;28;20019;-70
2022/05/22 03:00:25;;;;;;;3.15;0.73;;;14.30;99.90;;;;;;4974939;28;20461;-70
2022/05/22 03:02:53;;;;;;;2.20;1.08;;;14.30;99.90;;;;;;4974927;28;20023;-76
2022/05/22 03:05:21;;;;;;;5.68;1.55;;;14.40;99.90;;;;;;4989821;28;20380;-72
2022/05/22 03:07:49;;;;;;;6.40;1.20;;;14.40;99.90;;;;;;4974931;28;20023;-70
2022/05/22 03:10:17;;;;;;;2.20;0.90;;;14.50;99.90;;;;;;4974604;28;20357;-75
2022/05/22 03:12:45;;;;;;;2.88;1.02;;;14.60;99.90;;;;;;4974654;28;20026;-70
2022/05/22 03:15:15;;;;;;;1.90;1.00;;;14.60;99.90;;;;;;4973981;28;20487;-71
2022/05/22 03:17:43;;;;;;;1.42;0.93;;;14.70;99.90;;;;;;4974482;28;20027;-74
2022/05/22 03:20:12;;;;;;;3.15;1.00;;;14.70;99.90;;;;;;4975834;28;20077;-75
2022/05/22 03:22:40;;;;;;;1.27;0.80;;;14.80;99.90;;;;;;4975739;28;20483;-75
2022/05/22 03:25:09;;;;;;;5.00;1.23;;;14.90;99.90;;;;;;4974611;28;20023;-75
2022/05/22 03:27:37;;;;;;;1.58;0.93;;;14.90;99.90;;;;;;4974308;28;20046;-70
2022/05/22 03:30:06;;;;;;;3.67;1.42;;;14.90;99.90;;;;;;4981611;28;20022;-70
2022/05/22 03:32:33;;;;;;;4.45;1.25;;;14.90;99.90;;;;;;4979291;28;20026;-70
2022/05/22 03:35:01;;;;;;;6.97;1.42;;;15.00;99.90;;;;;;4976659;28;20121;-74
2022/05/22 03:37:29;;;;;;;4.38;1.10;;;15.00;99.90;;;;;;4991492;28;20022;-71
2022/05/22 03:39:57;;;;;;;1.70;0.93;;;15.10;99.90;;;;;;4999909;28;20066;-72
2022/05/22 03:42:24;;;;;;;5.88;1.20;;;15.10;99.90;;;;;;5007881;28;20105;-75
2022/05/22 03:44:52;;;;;;;4.80;1.00;;;15.10;99.90;;;;;;4996742;28;20413;-75
2022/05/22 03:47:20;;;;;;;4.05;1.17;;;15.20;99.90;;;;;;5004620;28;20038;-71
2022/05/22 03:49:48;;;;;;;3.83;1.30;;;15.10;99.90;;;;;;5004190;28;20041;-74
2022/05/22 03:52:15;;;;;;;0.95;0.70;;;15.10;99.90;;;;;;4997113;28;20842;-70
2022/05/22 03:54:43;;;;;;;4.97;1.30;;;15.10;99.90;;;;;;5008561;28;20038;-74
2022/05/22 03:57:11;;;;;;;3.08;0.95;;;15.10;99.90;;;;;;4999333;28;20179;-74
2022/05/22 03:59:41;;;;;;;4.10;1.77;;;15.10;99.90;;;;;;5001878;28;20501;-74
2022/05/22 04:02:09;;;;;;;7.20;1.85;;;15.10;99.90;;;;;;5007172;28;20026;-75
2022/05/22 04:04:37;;;;;;;5.40;1.52;;;15.10;99.90;;;;;;4995856;28;20029;-70
2022/05/22 04:07:05;;;;;;;7.25;2.00;;;15.20;99.90;;;;;;5006573;28;20022;-70
2022/05/22 04:09:32;;;;;;;1.75;0.93;;;15.10;99.90;;;;;;5001708;28;20057;-71
2022/05/22 04:12:00;;;;;;;3.63;1.13;;;15.10;99.90;;;;;;4998889;28;20471;-75
2022/05/22 04:14:28;;;;;;;1.67;1.00;;;15.10;99.90;;;;;;5008418;28;20044;-70
2022/05/22 04:16:56;;;;;;;2.05;0.88;;;15.10;99.90;;;;;;4997002;28;20029;-74
2022/05/22 04:19:23;;;;;;;2.85;1.10;;;15.10;99.90;;;;;;5003797;28;20026;-74
2022/05/22 04:21:51;;;;;;;1.25;1.00;;;15.10;99.90;;;;;;5004385;28;20160;-71
2022/05/22 04:27:08;;;;;;;2.53;1.38;;;15.20;99.90;;;;;;4984716;28;20032;-74
2022/05/22 04:29:37;;;;;;;3.55;1.10;;;15.20;99.90;;;;;;5006122;28;20054;-73
2022/05/22 04:32:05;;;;;;;2.75;1.10;;;15.20;99.90;;;;;;5009118;28;20132;-74
2022/05/22 04:34:33;;;;;;;4.00;1.27;;;15.20;99.90;;;;;;4996315;28;20522;-75
2022/05/22 04:37:01;;;;;;;1.45;1.10;;;15.20;99.90;;;;;;4995342;28;20054;-72
2022/05/22 04:39:29;;;;;;;3.90;1.35;;;15.20;99.90;;;;;;4995337;28;20065;-74
2022/05/22 04:41:56;;;;;;;2.83;1.42;;;15.20;99.90;;;;;;4995443;28;20030;-73
2022/05/22 04:44:24;;;;;;;3.15;1.10;;;15.30;99.90;;;;;;4995909;28;20073;-74
2022/05/22 04:46:52;;;;;;;4.38;1.42;;;15.40;99.90;;;;;;4995059;28;20026;-72
2022/05/22 04:49:19;;;;;;;6.63;1.27;;;15.40;99.90;;;;;;4996877;28;20045;-73
2022/05/22 04:51:47;;;;;;;4.80;1.52;;;15.40;99.90;;;;;;4983328;28;20023;-71
2022/05/22 04:54:14;;;;;;;2.88;0.95;;;15.50;99.90;;;;;;4981247;28;20035;-74
2022/05/22 04:56:42;;;;;;;3.75;1.70;;;15.50;99.90;;;;;;4977480;28;20033;-72
2022/05/22 04:59:10;;;;;;;2.90;1.20;;;15.50;99.90;;;;;;4977672;28;20057;-72
2022/05/22 05:01:38;;;;;;;2.10;1.27;;;15.50;99.90;;;;;;4976059;28;20057;-74
2022/05/22 05:04:06;;;;;;;7.13;1.63;;;15.60;99.90;;;;;;4977035;28;20037;-73
2022/05/22 05:06:33;;;;;;;7.25;1.48;;;15.60;99.90;;;;;;4976656;28;20026;-74
2022/05/22 05:09:01;;;;;;;5.00;1.15;;;15.60;99.90;;;;;;4977730;28;20496;-75
2022/05/22 05:11:29;;;;;;;9.80;1.38;;;15.60;99.90;;;;;;4976364;28;20068;-72
2022/05/22 05:13:56;;;;;;;6.35;1.17;;;15.50;99.90;;;;;;4976163;28;20034;-75
2022/05/22 05:16:24;;;;;;;2.70;0.95;;;15.60;99.90;;;;;;4977081;28;20031;-72
2022/05/22 05:18:52;;;;;;;4.45;1.75;;;15.60;99.90;;;;;;4977590;28;20531;-72
2022/05/22 05:21:20;;;;;;;4.63;1.23;;;15.60;99.90;;;;;;4976984;28;20503;-75
2022/05/22 05:23:47;;;;;;;7.40;1.77;;;15.60;99.90;;;;;;4981589;28;20031;-73
2022/05/22 05:26:15;;;;;;;3.95;1.40;;;15.60;99.90;;;;;;4979937;28;20628;-72
2022/05/22 05:28:43;;;;;;;3.85;1.10;;;15.60;99.90;;;;;;4996038;28;20026;-75
2022/05/22 05:31:11;;;;;;;6.90;1.58;;;15.60;99.90;;;;;;4998212;28;20022;-74
2022/05/22 05:33:38;;;;;;;4.18;1.55;;;15.60;99.90;;;;;;5006726;28;20022;-74
2022/05/22 05:36:10;;;;;;;3.30;1.10;;;15.60;99.90;;;;;;5007459;28;20030;-73
2022/05/22 05:38:38;;;;;;;3.92;1.02;;;15.60;99.90;;;;;;4998395;28;20020;-73
2022/05/22 05:41:07;;;;;;;6.50;1.42;;;15.60;99.90;;;;;;5009468;28;20039;-74
2022/05/22 05:43:37;;;;;;;4.22;1.50;;;15.60;99.90;;;;;;4995256;28;20537;-72
2022/05/22 05:46:05;;;;;;;4.75;1.50;;;15.60;99.90;;;;;;4994128;28;20505;-73
2022/05/22 05:48:33;;;;;;;3.42;1.60;;;15.60;99.90;;;;;;4994994;28;20088;-75
2022/05/22 05:51:01;;;;;;;2.90;1.02;;;15.50;99.90;;;;;;4994795;28;20407;-72
2022/05/22 05:53:29;;;;;;;2.38;1.25;;;15.50;99.90;;;;;;4995050;28;20029;-74
2022/05/22 05:55:56;;;;;;;3.88;1.75;;;15.50;99.90;;;;;;4994652;28;20023;-72
2022/05/22 05:58:24;;;;;;;2.70;0.90;;;15.40;99.90;;;;;;4994612;28;20467;-75
2022/05/22 06:00:52;;;;;;;3.83;1.23;;;15.40;99.90;;;;;;4994723;28;20022;-76
2022/05/22 06:03:19;;;;;;;2.28;1.02;;;15.40;99.90;;;;;;4994870;28;20464;-75
2022/05/22 06:05:48;;;;;;;2.92;0.90;;;15.30;99.90;;;;;;4994419;28;20034;-75
2022/05/22 06:08:16;;;;;;;2.00;1.13;;;15.20;99.90;;;;;;4994251;28;20022;-72
2022/05/22 06:10:44;;;;;;;4.30;0.93;;;15.20;99.90;;;;;;4994850;28;20553;-72
2022/05/22 06:13:12;;;;;;;1.35;0.80;;;15.20;99.90;;;;;;4994716;28;20468;-72
2022/05/22 06:15:39;;;;;;;3.33;0.65;;;15.20;99.90;;;;;;4995428;28;20442;-71
2022/05/22 06:18:07;;;;;;;1.73;0.95;;;15.20;99.90;;;;;;4995073;28;20055;-72
2022/05/22 06:20:35;;;;;;;3.38;1.35;;;15.10;99.90;;;;;;4995125;28;20030;-74
2022/05/22 06:23:04;;;;;;;2.42;1.02;;;15.10;99.90;;;;;;4995210;28;20022;-72
2022/05/22 06:25:33;;;;;;;1.95;0.90;;;15.10;99.90;;;;;;4995391;28;20033;-74
2022/05/22 06:28:01;;;;;;;1.45;0.95;;;15.00;99.90;;;;;;4994987;28;20109;-75
2022/05/22 06:30:28;;;;;;;2.67;1.25;;;15.10;99.90;;;;;;4993783;28;20018;-72
2022/05/22 06:32:57;;;;;;;2.08;1.30;;;15.00;99.90;;;;;;4994312;28;20037;-72
2022/05/22 06:35:25;;;;;;;2.55;0.95;;;15.00;99.90;;;;;;4993916;28;20030;-75
2022/05/22 06:37:52;;;;;;;1.85;0.80;;;15.00;99.90;;;;;;4993794;28;20064;-74
2022/05/22 06:40:20;;;;;;;2.60;1.20;;;14.90;99.90;;;;;;4994638;28;20038;-72
2022/05/22 06:42:48;;;;;;;5.03;1.23;;;14.90;99.90;;;;;;4995007;28;20105;-72
2022/05/22 06:45:22;;;;;;;1.80;1.20;;;14.90;99.90;;;;;;4991789;28;20037;-72
2022/05/22 06:47:50;;;;;;;4.35;1.67;;;14.90;99.90;;;;;;4993891;28;20384;-78
2022/05/22 06:50:21;;;;;;;3.92;1.60;;;14.80;99.90;;;;;;4993580;28;20092;-76
2022/05/22 06:52:49;;;;;;;4.05;1.75;;;14.90;99.90;;;;;;4993908;28;20022;-75
2022/05/22 06:55:17;;;;;;;3.50;1.73;;;14.80;99.90;;;;;;4993763;28;20125;-75
2022/05/22 06:57:45;;;;;;;3.80;1.75;;;14.80;99.90;;;;;;4980966;28;20058;-74
2022/05/22 07:00:16;;;;;;;2.45;1.30;;;14.80;99.90;;;;;;4989335;28;20037;-73
2022/05/22 07:02:43;;;;;;;2.63;1.15;;;14.70;99.90;;;;;;4994625;28;20072;-72
2022/05/22 07:05:12;;;;;;;2.17;1.38;;;14.70;99.90;;;;;;4994584;28;20026;-72
2022/05/22 07:07:40;;;;;;;3.85;1.75;;;14.70;99.90;;;;;;4994547;28;20019;-74
2022/05/22 07:10:08;;;;;;;2.80;1.40;;;14.60;99.90;;;;;;4994468;28;20038;-73
2022/05/22 07:12:36;;;;;;;3.78;1.50;;;14.70;99.90;;;;;;4993804;28;20030;-75
2022/05/22 07:15:08;;;;;;;2.63;1.73;;;14.70;99.90;;;;;;4994999;28;20144;-75
2022/05/22 07:17:39;;;;;;;3.22;1.73;;;14.60;99.90;;;;;;4994296;28;20022;-75
2022/05/22 07:20:08;;;;;;;3.88;1.60;;;14.70;99.90;;;;;;4993287;28;20468;-72
2022/05/22 07:22:35;;;;;;;2.55;1.40;;;14.70;99.90;;;;;;4993567;28;20058;-74
2022/05/22 07:25:03;;;;;;;4.10;1.17;;;14.60;99.90;;;;;;4993167;28;20021;-71
2022/05/22 07:27:31;;;;;;;5.60;1.42;;;14.50;99.90;;;;;;4993213;28;20019;-74
2022/05/22 07:30:02;;;;;;;4.25;1.40;;;14.40;99.90;;;;;;4993323;28;20069;-73
2022/05/22 07:32:30;;;;;;;3.90;1.00;;;14.40;99.90;;;;;;4993381;28;20030;-72
2022/05/22 07:34:58;;;;;;;3.08;1.00;;;14.30;99.90;;;;;;4993060;28;20117;-73
2022/05/22 07:37:26;;;;;;;3.97;1.15;;;14.30;99.90;;;;;;4993246;28;20388;-75
2022/05/22 07:39:54;;;;;;;2.75;1.13;;;14.30;99.90;;;;;;4993148;28;20029;-74
2022/05/22 07:42:22;;;;;;;4.63;0.75;;;14.30;99.90;;;;;;4993371;28;20015;-73
2022/05/22 07:44:50;;;;;;;2.10;1.20;;;14.20;99.90;;;;;;4993024;28;20551;-76
2022/05/22 07:47:18;;;;;;;2.17;1.05;;;14.30;99.90;;;;;;4993038;28;20028;-76
2022/05/22 07:52:31;;;;;;;3.15;1.08;;;14.30;99.90;;;;;;4991827;28;20072;-73
2022/05/22 07:54:59;;;;;;;6.10;1.45;;;14.30;99.90;;;;;;4992908;28;20065;-72
2022/05/22 07:57:27;;;;;;;5.03;1.70;;;14.30;99.90;;;;;;4992792;28;20057;-77
2022/05/22 07:59:54;;;;;;;4.10;1.48;;;14.30;99.90;;;;;;4992892;28;20014;-73
2022/05/22 08:02:22;;;;;;;7.38;2.00;;;14.30;99.90;;;;;;4992949;28;20382;-72
2022/05/22 08:04:50;;;;;;;4.13;2.50;;;14.30;99.90;;;;;;4992940;28;20493;-73
2022/05/22 08:07:18;;;;;;;3.15;2.13;;;14.30;99.90;;;;;;4992424;28;20480;-73
2022/05/22 08:09:45;;;;;;;5.00;3.03;;;14.30;99.90;;;;;;4992872;28;20030;-73
2022/05/22 08:12:13;;;;;;;3.63;2.25;;;14.30;99.90;;;;;;4992748;28;20029;-72
2022/05/22 08:14:41;;;;;;;5.00;1.75;;;14.20;99.90;;;;;;4993446;28;20041;-73
2022/05/22 08:17:08;;;;;;;3.25;1.48;;;14.10;99.90;;;;;;4993049;28;20124;-76
2022/05/22 08:19:36;;;;;;;4.82;1.83;;;14.10;99.90;;;;;;4993169;28;20039;-73
2022/05/22 08:22:04;;;;;;;3.28;1.35;;;14.00;99.90;;;;;;4993315;28;20384;-76
2022/05/22 08:24:32;;;;;;;3.15;1.00;;;13.90;99.90;;;;;;4993256;28;20470;-73
2022/05/22 08:27:00;;;;;;;2.22;0.80;;;13.80;99.90;;;;;;4991995;28;20109;-72
2022/05/22 08:29:28;;;;;;;5.28;0.98;;;13.80;99.90;;;;;;4990986;28;20145;-76
2022/05/22 08:31:55;;;;;;;3.72;1.45;;;13.70;99.90;;;;;;4992916;28;20037;-73
2022/05/22 08:34:23;;;;;;;4.28;1.13;;;13.70;99.90;;;;;;4992873;28;20120;-76
2022/05/22 08:36:51;;;;;;;4.20;1.50;;;13.70;99.90;;;;;;4976329;28;20035;-73
2022/05/22 08:39:20;;;;;;;3.20;0.88;;;13.70;99.90;;;;;;4973616;28;20186;-76
2022/05/22 08:41:51;;;;;;;2.70;0.98;;;13.60;99.90;;;;;;4973232;28;20458;-73
2022/05/22 08:44:26;;;;;;;6.68;5.35;;;13.60;99.90;;;;;;4973437;28;20058;-73
2022/05/22 08:47:03;;;;;;;18.03;11.83;;;13.60;99.90;;;;;;4974218;28;20026;-75
2022/05/22 08:49:32;;;;;;;6.90;4.15;;;13.50;99.90;;;;;;4973359;28;20260;-73
2022/05/22 08:52:26;;;;;;;3.35;1.75;;;13.60;99.90;;;;;;4974027;28;20027;-73
2022/05/22 08:55:23;;;;;;;2.20;1.05;;;13.50;99.90;;;;;;4974673;28;20503;-76
2022/05/22 09:01:46;;;;;;;1.63;1.10;;;13.50;99.90;;;;;;4974293;28;20114;-72
2022/05/22 09:04:35;;;;;;;2.22;1.02;;;13.50;99.90;;;;;;4933087;29;20482;-75
2022/05/22 09:07:20;;;;;;;2.03;0.90;;;13.50;99.90;;;;;;4931526;29;20030;-72
2022/05/22 09:10:00;;;;;;;1.98;0.93;;;13.50;99.90;;;;;;4977313;28;20033;-71
2022/05/22 09:13:07;;;;;;;1.23;0.77;;;13.50;99.90;;;;;;4992270;28;20690;-71
2022/05/22 09:15:44;;;;;;;1.30;0.65;;;13.60;99.90;;;;;;4992382;28;20034;-72
2022/05/22 09:18:32;;;;;;;3.08;1.02;;;13.60;99.90;;;;;;4996133;28;20038;-72
2022/05/22 09:21:24;;;;;;;4.05;1.75;;;13.60;99.90;;;;;;4981191;28;20078;-76
2022/05/22 09:24:02;;;;;;;2.50;0.90;;;13.50;99.90;;;;;;4974730;28;20440;-76
2022/05/22 09:26:47;;;;;;;3.67;1.00;;;13.50;99.90;;;;;;4976906;28;20475;-72
2022/05/22 09:29:50;;;;;;;2.08;1.20;;;13.60;99.90;;;;;;4976275;28;20058;-72
2022/05/22 09:32:42;;;;;;;7.18;2.90;;;13.60;99.90;;;;;;4975899;28;20475;-73
2022/05/22 09:35:18;;;;;;;3.72;1.77;;;13.60;99.90;;;;;;4975968;28;20038;-75
2022/05/22 09:37:52;;;;;;;4.10;2.15;;;13.60;99.90;;;;;;4976011;28;20480;-72
2022/05/22 09:40:30;;;;;;;7.40;2.13;;;13.50;99.90;;;;;;4975745;28;20059;-76
2022/05/22 09:43:29;;;;;;;3.20;1.63;;;13.50;99.90;;;;;;4975898;28;20114;-73
2022/05/22 09:46:10;;;;;;;18.17;1.65;;;13.40;99.90;;;;;;4975112;28;20061;-72
2022/05/22 09:49:10;;;;;;;1.63;1.17;;;13.50;99.90;;;;;;4975479;28;20073;-75
2022/05/22 09:52:10;;;;;;;2.58;1.73;;;13.50;99.90;;;;;;4974199;28;20516;-73
2022/05/22 09:54:46;;;;;;;1.88;1.23;;;13.50;99.90;;;;;;4963708;28;20081;-74
2022/05/22 09:57:50;;;;;;;3.45;2.10;;;13.50;99.90;;;;;;4974901;28;20026;-76
2022/05/22 10:00:52;;;;;;;3.08;1.73;;;13.50;99.90;;;;;;4972890;28;20049;-73
2022/05/22 10:03:47;;;;;;;2.53;1.70;;;13.50;99.90;;;;;;4954633;28;20027;-73
2022/05/22 10:06:24;;;;;;;4.82;2.53;;;13.50;99.90;;;;;;4975926;28;20031;-71
2022/05/22 10:09:12;;;;;;;2.72;2.00;;;13.50;99.90;;;;;;4975497;28;20105;-71
2022/05/22 10:11:39;;;;;;;2.38;1.23;;;13.40;99.90;;;;;;4975234;28;20436;-71
2022/05/22 10:14:28;;;;;;;0.73;0.63;;;13.40;99.90;;;;;;4974916;28;20105;-76
2022/05/22 10:17:26;;;;;;;1.50;1.08;;;13.30;99.90;;;;;;4974182;28;20018;-74
2022/05/22 10:20:09;;;;;;;6.72;2.38;;;13.30;99.90;;;;;;4974950;28;20476;-76
2022/05/22 10:23:11;;;;;;;10.15;3.70;;;13.30;99.90;;;;;;4975336;28;20030;-71
2022/05/22 10:26:06;;;;;;;8.18;3.75;;;13.30;99.90;;;;;;4939910;28;20026;-76
2022/05/22 10:28:53;;;;;;;6.43;3.65;;;13.30;99.90;;;;;;4975054;28;20018;-72
2022/05/22 10:31:26;;;;;;;6.00;2.60;;;13.30;99.90;;;;;;4975375;28;20042;-75
2022/05/22 10:34:02;;;;;;;6.68;2.80;;;13.30;99.90;;;;;;4979321;28;20544;-71
2022/05/22 10:36:43;;;;;;;3.35;2.42;;;13.30;99.90;;;;;;4985572;28;20053;-72
2022/05/22 10:39:15;;;;;;;4.28;2.33;;;13.30;99.90;;;;;;4980530;28;20418;-73
2022/05/22 10:44:43;;;;;;;2.88;1.60;;;13.20;99.90;;;;;;4977102;28;20038;-76
2022/05/22 10:47:12;;;;;;;2.65;1.27;;;13.10;99.90;;;;;;4974722;28;20131;-76
2022/05/22 10:49:46;;;;;;;3.33;1.20;;;13.10;99.90;;;;;;4974308;28;20047;-72
2022/05/22 10:52:25;;;;;;;4.35;1.20;;;13.10;99.90;;;;;;4974553;28;20480;-71
2022/05/22 10:54:55;;;;;;;5.03;1.23;;;13.00;99.90;;;;;;4974488;28;20035;-72
2022/05/22 10:57:30;;;;;;;2.00;1.52;;;13.00;99.90;;;;;;4974335;28;20077;-71
2022/05/22 10:59:58;;;;;;;1.88;1.33;;;13.00;99.90;;;;;;4974740;28;20027;-75
2022/05/22 11:02:30;;;;;;;6.97;1.67;;;13.00;99.90;;;;;;4978245;28;20033;-71
2022/05/22 11:04:59;;;;;;;4.07;1.60;;;13.00;99.90;;;;;;4979301;28;20060;-73
2022/05/22 11:07:42;;;;;;;3.65;1.25;;;13.00;99.90;;;;;;4974250;28;20046;-75
2022/05/22 11:10:34;;;;;;;3.45;1.52;;;13.00;99.90;;;;;;4974016;28;20431;-71
2022/05/22 11:13:20;;;;;;;4.68;1.52;;;13.00;99.90;;;;;;4974076;28;20023;-71
2022/05/22 11:15:48;;;;;;;2.78;1.30;;;13.00;99.90;;;;;;4974075;28;20026;-71
2022/05/22 11:18:23;;;;;;;3.45;1.40;;;13.00;99.90;;;;;;4973722;28;20655;-76
2022/05/22 11:21:11;;;;;;;5.00;1.83;;;13.00;99.90;;;;;;4973765;28;20029;-77
2022/05/22 11:23:46;;;;;;;2.67;1.42;;;13.00;99.90;;;;;;4973454;28;20030;-75
2022/05/22 11:26:42;;;;;;;3.10;1.58;;;13.00;99.90;;;;;;4974253;28;20129;-77
2022/05/22 11:29:38;;;;;;;4.05;1.98;;;13.00;99.90;;;;;;4974322;28;20026;-73
2022/05/22 11:32:28;;;;;;;2.90;1.88;;;13.00;99.90;;;;;;4973990;28;20045;-77
2022/05/22 11:35:34;;;;;;;2.58;1.73;;;13.00;99.90;;;;;;4949181;28;20109;-72
2022/05/22 11:38:23;;;;;;;2.10;1.47;;;13.00;99.90;;;;;;4987951;28;20415;-75
2022/05/22 11:41:09;;;;;;;5.78;1.65;;;12.90;99.90;;;;;;4991560;28;20033;-71
2022/05/22 11:43:54;;;;;;;4.07;1.75;;;12.90;99.90;;;;;;4986842;28;20395;-71
2022/05/22 11:46:45;;;;;;;1.27;0.90;;;12.90;99.90;;;;;;4987562;28;20026;-75
2022/05/22 11:49:40;;;;;;;1.80;1.13;;;12.90;99.90;;;;;;4985264;28;20077;-71
2022/05/22 11:55:29;;;;;;;3.17;1.02;;;12.80;99.90;;;;;;4984093;28;20142;-70
2022/05/22 11:58:15;;;;;;;4.07;1.13;;;12.80;99.90;;;;;;4974835;28;20381;-70
2022/05/22 12:01:04;;;;;;;3.72;1.40;;;12.70;99.90;;;;;;4974631;28;20026;-71
2022/05/22 12:03:37;;;;;;;2.13;1.10;;;12.70;99.90;;;;;;4974795;28;20031;-71
2022/05/22 12:06:30;;;;;;;3.15;1.60;;;12.70;99.90;;;;;;4974526;28;20165;-75
2022/05/22 12:09:01;;;;;;;3.92;1.33;;;12.70;99.90;;;;;;4974371;28;20069;-71
2022/05/22 12:11:28;;;;;;;2.83;1.30;;;12.70;99.90;;;;;;4974551;28;20037;-71
2022/05/22 12:14:03;;;;;;;1.98;1.50;;;12.60;99.90;;;;;;4974530;28;20034;-74
2022/05/22 12:16:44;;;;;;;1.17;1.00;;;12.60;99.90;;;;;;4974937;28;20031;-71
2022/05/22 12:19:52;;;;;;;6.03;1.92;;;12.50;99.90;;;;;;4981254;28;20030;-71
2022/05/22 12:25:20;;;;;;;4.00;1.50;;;12.60;99.90;;;;;;4994170;28;20033;-71
2022/05/22 12:27:50;;;;;;;3.72;1.30;;;12.50;99.90;;;;;;4993916;28;20475;-71
2022/05/22 12:30:28;;;;;;;4.90;1.92;;;12.50;99.90;;;;;;4993648;28;20018;-71
2022/05/22 12:33:06;;;;;;;3.83;1.58;;;12.50;99.90;;;;;;4993912;28;20491;-71
2022/05/22 12:35:34;;;;;;;3.17;1.67;;;12.40;99.90;;;;;;4988526;28;20042;-71
2022/05/22 12:38:05;;;;;;;3.97;2.15;;;12.50;99.90;;;;;;4993515;28;20050;-71
2022/05/22 12:40:45;;;;;;;4.65;2.08;;;12.40;99.90;;;;;;4993604;28;20129;-76
2022/05/22 12:43:17;;;;;;;4.30;1.80;;;12.40;99.90;;;;;;4992388;28;20025;-76
2022/05/22 12:46:01;;;;;;;4.05;1.83;;;12.40;99.90;;;;;;4993769;28;20027;-71
2022/05/22 12:48:44;;;;;;;4.57;1.60;;;12.40;99.90;;;;;;4993891;28;20029;-77
2022/05/22 12:51:12;;;;;;;7.10;1.58;;;12.40;99.90;;;;;;4996947;28;20411;-77
2022/05/22 12:53:46;;;;;;;3.60;1.48;;;12.30;99.90;;;;;;4997607;28;20030;-72
2022/05/22 12:56:32;;;;;;;1.85;1.10;;;12.30;99.90;;;;;;4997699;28;20030;-72
2022/05/22 12:59:03;;;;;;;2.88;1.65;;;12.30;99.90;;;;;;4997397;28;20022;-72
2022/05/22 13:01:45;;;;;;;3.00;1.83;;;12.30;99.90;;;;;;4997011;28;20436;-76
2022/05/22 13:04:18;;;;;;;2.83;1.48;;;12.30;99.90;;;;;;4993365;28;20023;-72
2022/05/22 13:07:09;;;;;;;3.45;1.50;;;12.20;99.90;;;;;;4997485;28;20026;-72
2022/05/22 13:09:49;;;;;;;1.77;1.40;;;12.20;99.90;;;;;;4997313;28;20033;-72
2022/05/22 13:12:18;;;;;;;3.30;1.55;;;12.10;99.90;;;;;;4990332;28;20101;-74
2022/05/22 13:14:57;;;;;;;5.15;1.83;;;12.10;99.90;;;;;;4987485;28;20034;-77
2022/05/22 13:18:07;;;;;;;3.13;1.98;;;12.00;99.90;;;;;;4987315;28;20033;-72
2022/05/22 13:20:37;;;;;;;3.13;1.67;;;12.00;99.90;;;;;;4889909;29;20073;-72
2022/05/22 13:23:24;;;;;;;2.22;1.10;;;12.00;99.90;;;;;;4889733;29;20029;-72
2022/05/22 13:26:07;;;;;;;9.48;1.75;;;11.90;99.90;;;;;;4956805;28;20062;-76
2022/05/22 13:28:42;;;;;;;2.72;1.40;;;11.90;99.90;;;;;;4988732;28;20026;-77
2022/05/22 13:31:12;;;;;;;2.80;1.38;;;11.90;99.90;;;;;;4996718;28;20409;-76
2022/05/22 13:33:43;;;;;;;4.80;1.38;;;11.90;99.90;;;;;;4996989;28;20030;-76
2022/05/22 13:36:17;;;;;;;5.90;1.80;;;11.90;99.90;;;;;;4996759;28;20444;-71
2022/05/22 13:38:44;;;;;;;3.30;1.92;;;11.80;99.90;;;;;;4989293;28;20019;-74